메인 페이지
METAR-TAF:

METAR-TAF

공항 :

베이커즈필드, 캘리포니아, 미국

위도: 35-26-01N, 경도: 119-03-24W, 고도: 155m

현재 날씨관측

예보는 26분 전, 04:54시(UTC)에 발표되었습니다.
북동7kt
온도 19°C
습도 68%
기압 1015 hPa
시정: 16.1km
맑음

METAR: KBFL 180454Z 04007KT 10SM CLR 19/13 A2997 RMK AO2 SLP144 T01940128

시각: 22:20 (05:20 UTC)

예보

예보는 6 시간 0분 전, 23:20시(UTC)에 발표되었습니다.
예보 대상 시간: 18일 00시부터 18일 24시까지 (UTC)
여러 방향의 바람 4kt
시정: 10km
고도 25000ft 상공 구름 많음

TAF: KBFL 172320Z 1800/1824 VRB04KT P6SM BKN250

4,000개 이상의 공항 관측 자료 및 예보 (METAR 및 TAF 보고).

지도상에서 검색 가능한 기상관측소가 노란 점과 빨간 점으로 표시되어 있습니다.

기상관측소 명을 보려면 표시 위로 마우스를 이동하세요.

날씨 관측과 예보를 보려면 클릭하세요.

지도 변경 : 확대하려면 엑스 표시가 있는 녹색 버튼, 축소하려면 빼기 표시가 있는 녹색 버튼, 다음 페이지의 지도를 보려면 녹색 화살표를 클릭하세요.


METAR-TAF: